Berlin, New Hampshire
Current Conditions -  °F | °C
As of 1:52 AM on Wednesday 22 Oct 2014 (Local Time) from KBML Reporting Station
Light Rain Light Rain  
Wind Chill: 40°   Ceiling: 2000
Heat Index: 44°   Visibility: 9mi
Dew Point: 43°   Wind: 8mph
Humidity: 96%   Direction: 350°N
Pressure: 30.11"   Gusts: NA
Location:  44.47°N, 71.18°W
Report Text: KBML 220552Z AUTO 35007KT 9SM -RA BKN020 OVC026 07/06 A3011 RMK AO2 SLP205 P0007 60015 T00670061 10072 20067 58000
Loading
Personal Weather Stations






























Interactive Weather Map New forecast layout! Learn more

10-Day Weather Forecast

Advertisements
Track Severe Weather on mobile